sensor_id;sensor_type;location;lat;lon;timestamp;temperature;humidity
1083;DHT22;530;51.448;7.238;2022-07-04T00:02:25;17.00;99.90
1083;DHT22;530;51.448;7.238;2022-07-04T00:04:51;16.90;99.90
1083;DHT22;530;51.448;7.238;2022-07-04T00:07:17;16.90;99.90
1083;DHT22;530;51.448;7.238;2022-07-04T00:09:43;16.80;99.90
1083;DHT22;530;51.448;7.238;2022-07-04T00:12:08;16.60;99.90
1083;DHT22;530;51.448;7.238;2022-07-04T00:14:34;16.60;99.90
1083;DHT22;530;51.448;7.238;2022-07-04T00:17:00;16.60;99.90
1083;DHT22;530;51.448;7.238;2022-07-04T00:19:26;16.60;99.90
1083;DHT22;530;51.448;7.238;2022-07-04T00:21:52;16.60;99.90
1083;DHT22;530;51.448;7.238;2022-07-04T00:24:18;16.60;99.90
1083;DHT22;530;51.448;7.238;2022-07-04T00:26:43;16.60;99.90
1083;DHT22;530;51.448;7.238;2022-07-04T00:29:09;16.60;99.90
1083;DHT22;530;51.448;7.238;2022-07-04T00:31:35;16.60;99.90
1083;DHT22;530;51.448;7.238;2022-07-04T00:34:01;16.60;99.90
1083;DHT22;530;51.448;7.238;2022-07-04T00:36:27;16.60;99.90
1083;DHT22;530;51.448;7.238;2022-07-04T00:38:52;16.60;99.90
1083;DHT22;530;51.448;7.238;2022-07-04T00:41:18;16.60;99.90
1083;DHT22;530;51.448;7.238;2022-07-04T00:43:44;16.70;99.90
1083;DHT22;530;51.448;7.238;2022-07-04T00:46:24;16.70;99.90
1083;DHT22;530;51.448;7.238;2022-07-04T00:48:50;16.70;99.90
1083;DHT22;530;51.448;7.238;2022-07-04T00:51:16;16.70;99.90
1083;DHT22;530;51.448;7.238;2022-07-04T00:53:42;16.70;99.90
1083;DHT22;530;51.448;7.238;2022-07-04T00:56:08;16.80;99.90
1083;DHT22;530;51.448;7.238;2022-07-04T00:58:34;16.70;99.90
1083;DHT22;530;51.448;7.238;2022-07-04T01:00:59;16.70;99.90
1083;DHT22;530;51.448;7.238;2022-07-04T01:03:25;16.60;99.90
1083;DHT22;530;51.448;7.238;2022-07-04T01:05:51;16.60;99.90
1083;DHT22;530;51.448;7.238;2022-07-04T01:08:17;16.60;99.90
1083;DHT22;530;51.448;7.238;2022-07-04T01:10:42;16.60;99.90
1083;DHT22;530;51.448;7.238;2022-07-04T01:13:21;16.50;99.90
1083;DHT22;530;51.448;7.238;2022-07-04T01:15:47;16.40;99.90
1083;DHT22;530;51.448;7.238;2022-07-04T01:18:13;16.40;99.90
1083;DHT22;530;51.448;7.238;2022-07-04T01:20:39;16.40;99.90
1083;DHT22;530;51.448;7.238;2022-07-04T01:23:04;16.30;99.90
1083;DHT22;530;51.448;7.238;2022-07-04T01:25:31;16.30;99.90
1083;DHT22;530;51.448;7.238;2022-07-04T01:28:01;16.20;99.90
1083;DHT22;530;51.448;7.238;2022-07-04T01:30:28;16.20;99.90
1083;DHT22;530;51.448;7.238;2022-07-04T01:32:54;16.10;99.90
1083;DHT22;530;51.448;7.238;2022-07-04T01:35:21;16.00;99.90
1083;DHT22;530;51.448;7.238;2022-07-04T01:37:47;16.00;99.90
1083;DHT22;530;51.448;7.238;2022-07-04T01:40:13;15.90;99.90
1083;DHT22;530;51.448;7.238;2022-07-04T01:42:40;15.90;99.90
1083;DHT22;530;51.448;7.238;2022-07-04T01:45:07;15.80;99.90
1083;DHT22;530;51.448;7.238;2022-07-04T01:47:33;15.70;99.90
1083;DHT22;530;51.448;7.238;2022-07-04T01:49:59;15.70;99.90
1083;DHT22;530;51.448;7.238;2022-07-04T01:52:24;15.70;99.90
1083;DHT22;530;51.448;7.238;2022-07-04T01:54:50;15.60;99.90
1083;DHT22;530;51.448;7.238;2022-07-04T01:57:16;15.60;99.90
1083;DHT22;530;51.448;7.238;2022-07-04T01:59:42;15.60;99.90
1083;DHT22;530;51.448;7.238;2022-07-04T02:02:26;15.60;99.90
1083;DHT22;530;51.448;7.238;2022-07-04T02:04:52;15.50;99.90
1083;DHT22;530;51.448;7.238;2022-07-04T02:07:18;15.40;99.90
1083;DHT22;530;51.448;7.238;2022-07-04T02:09:43;15.40;99.90
1083;DHT22;530;51.448;7.238;2022-07-04T02:12:09;15.40;99.90
1083;DHT22;530;51.448;7.238;2022-07-04T02:14:53;15.40;99.90
1083;DHT22;530;51.448;7.238;2022-07-04T02:17:19;15.40;99.90
1083;DHT22;530;51.448;7.238;2022-07-04T02:19:46;15.30;99.90
1083;DHT22;530;51.448;7.238;2022-07-04T02:22:11;15.20;99.90
1083;DHT22;530;51.448;7.238;2022-07-04T02:24:37;15.10;99.90
1083;DHT22;530;51.448;7.238;2022-07-04T02:27:03;15.10;99.90
1083;DHT22;530;51.448;7.238;2022-07-04T02:29:29;15.10;99.90
1083;DHT22;530;51.448;7.238;2022-07-04T02:31:55;15.10;99.90
1083;DHT22;530;51.448;7.238;2022-07-04T02:34:20;15.00;99.90
1083;DHT22;530;51.448;7.238;2022-07-04T02:36:46;15.00;99.90
1083;DHT22;530;51.448;7.238;2022-07-04T02:39:12;15.00;99.90
1083;DHT22;530;51.448;7.238;2022-07-04T02:41:38;15.00;99.90
1083;DHT22;530;51.448;7.238;2022-07-04T02:44:03;14.90;99.90
1083;DHT22;530;51.448;7.238;2022-07-04T02:46:29;14.90;99.90
1083;DHT22;530;51.448;7.238;2022-07-04T02:48:57;14.90;99.90
1083;DHT22;530;51.448;7.238;2022-07-04T02:51:23;15.00;99.90
1083;DHT22;530;51.448;7.238;2022-07-04T02:53:48;15.00;99.90
1083;DHT22;530;51.448;7.238;2022-07-04T02:56:14;15.00;99.90
1083;DHT22;530;51.448;7.238;2022-07-04T02:58:40;15.00;99.90
1083;DHT22;530;51.448;7.238;2022-07-04T03:01:06;14.90;99.90
1083;DHT22;530;51.448;7.238;2022-07-04T03:03:32;14.80;99.90
1083;DHT22;530;51.448;7.238;2022-07-04T03:05:57;14.80;99.90
1083;DHT22;530;51.448;7.238;2022-07-04T03:08:23;14.90;99.90
1083;DHT22;530;51.448;7.238;2022-07-04T03:10:49;14.80;99.90
1083;DHT22;530;51.448;7.238;2022-07-04T03:13:17;14.80;99.90
1083;DHT22;530;51.448;7.238;2022-07-04T03:15:43;14.80;99.90
1083;DHT22;530;51.448;7.238;2022-07-04T03:18:09;14.80;99.90
1083;DHT22;530;51.448;7.238;2022-07-04T03:20:34;14.70;99.90
1083;DHT22;530;51.448;7.238;2022-07-04T03:23:00;14.70;99.90
1083;DHT22;530;51.448;7.238;2022-07-04T03:25:26;14.70;99.90
1083;DHT22;530;51.448;7.238;2022-07-04T03:27:52;14.70;99.90
1083;DHT22;530;51.448;7.238;2022-07-04T03:30:17;14.80;99.90
1083;DHT22;530;51.448;7.238;2022-07-04T03:32:43;14.80;99.90
1083;DHT22;530;51.448;7.238;2022-07-04T03:35:09;14.80;99.90
1083;DHT22;530;51.448;7.238;2022-07-04T03:37:34;14.80;99.90
1083;DHT22;530;51.448;7.238;2022-07-04T03:40:00;14.80;99.90
1083;DHT22;530;51.448;7.238;2022-07-04T03:42:26;14.80;99.90
1083;DHT22;530;51.448;7.238;2022-07-04T03:44:52;14.80;99.90
1083;DHT22;530;51.448;7.238;2022-07-04T03:47:18;14.90;99.90
1083;DHT22;530;51.448;7.238;2022-07-04T03:49:44;14.80;99.90
1083;DHT22;530;51.448;7.238;2022-07-04T03:52:09;14.90;99.90
1083;DHT22;530;51.448;7.238;2022-07-04T03:54:35;14.90;99.90
1083;DHT22;530;51.448;7.238;2022-07-04T03:57:01;14.90;99.90
1083;DHT22;530;51.448;7.238;2022-07-04T03:59:26;15.00;99.90
1083;DHT22;530;51.448;7.238;2022-07-04T04:01:52;15.00;99.90
1083;DHT22;530;51.448;7.238;2022-07-04T04:04:18;14.90;99.90
1083;DHT22;530;51.448;7.238;2022-07-04T04:07:02;15.00;99.90
1083;DHT22;530;51.448;7.238;2022-07-04T04:09:28;15.00;99.90
1083;DHT22;530;51.448;7.238;2022-07-04T04:11:54;15.10;99.90
1083;DHT22;530;51.448;7.238;2022-07-04T04:14:19;15.10;99.90
1083;DHT22;530;51.448;7.238;2022-07-04T04:16:45;15.10;99.90
1083;DHT22;530;51.448;7.238;2022-07-04T04:19:11;15.10;99.90
1083;DHT22;530;51.448;7.238;2022-07-04T04:21:37;15.10;99.90
1083;DHT22;530;51.448;7.238;2022-07-04T04:24:04;15.10;99.90
1083;DHT22;530;51.448;7.238;2022-07-04T04:26:30;15.20;99.90
1083;DHT22;530;51.448;7.238;2022-07-04T04:28:56;15.20;99.90
1083;DHT22;530;51.448;7.238;2022-07-04T04:31:21;15.20;99.90
1083;DHT22;530;51.448;7.238;2022-07-04T04:33:47;15.20;99.90
1083;DHT22;530;51.448;7.238;2022-07-04T04:36:13;15.30;99.90
1083;DHT22;530;51.448;7.238;2022-07-04T04:38:39;15.40;99.90
1083;DHT22;530;51.448;7.238;2022-07-04T04:41:05;15.40;99.90
1083;DHT22;530;51.448;7.238;2022-07-04T04:43:30;15.40;99.90
1083;DHT22;530;51.448;7.238;2022-07-04T04:45:56;15.50;99.90
1083;DHT22;530;51.448;7.238;2022-07-04T04:48:22;15.50;99.90
1083;DHT22;530;51.448;7.238;2022-07-04T04:50:47;15.60;99.90
1083;DHT22;530;51.448;7.238;2022-07-04T04:53:13;15.60;99.90
1083;DHT22;530;51.448;7.238;2022-07-04T04:55:39;15.70;99.90
1083;DHT22;530;51.448;7.238;2022-07-04T04:58:05;15.80;99.90
1083;DHT22;530;51.448;7.238;2022-07-04T05:00:31;15.90;99.90
1083;DHT22;530;51.448;7.238;2022-07-04T05:02:57;16.00;99.90
1083;DHT22;530;51.448;7.238;2022-07-04T05:05:23;16.00;99.90
1083;DHT22;530;51.448;7.238;2022-07-04T05:07:49;16.10;99.90
1083;DHT22;530;51.448;7.238;2022-07-04T05:10:14;16.20;99.90
1083;DHT22;530;51.448;7.238;2022-07-04T05:12:44;16.20;99.90
1083;DHT22;530;51.448;7.238;2022-07-04T05:15:10;16.40;99.90
1083;DHT22;530;51.448;7.238;2022-07-04T05:17:36;16.40;99.90
1083;DHT22;530;51.448;7.238;2022-07-04T05:20:02;16.50;99.90
1083;DHT22;530;51.448;7.238;2022-07-04T05:22:28;16.60;99.90
1083;DHT22;530;51.448;7.238;2022-07-04T05:24:54;16.70;99.90
1083;DHT22;530;51.448;7.238;2022-07-04T05:27:20;16.80;99.90
1083;DHT22;530;51.448;7.238;2022-07-04T05:29:46;16.90;99.90
1083;DHT22;530;51.448;7.238;2022-07-04T05:32:11;16.90;99.90
1083;DHT22;530;51.448;7.238;2022-07-04T05:34:37;17.00;99.90
1083;DHT22;530;51.448;7.238;2022-07-04T05:37:03;17.10;99.90
1083;DHT22;530;51.448;7.238;2022-07-04T05:39:30;17.10;99.90
1083;DHT22;530;51.448;7.238;2022-07-04T05:41:56;17.20;99.90
1083;DHT22;530;51.448;7.238;2022-07-04T05:44:21;17.30;99.90
1083;DHT22;530;51.448;7.238;2022-07-04T05:46:47;17.40;99.90
1083;DHT22;530;51.448;7.238;2022-07-04T05:49:13;17.40;99.90
1083;DHT22;530;51.448;7.238;2022-07-04T05:51:38;17.60;99.90
1083;DHT22;530;51.448;7.238;2022-07-04T05:54:04;17.70;99.90
1083;DHT22;530;51.448;7.238;2022-07-04T05:56:30;17.80;99.90
1083;DHT22;530;51.448;7.238;2022-07-04T05:58:56;17.90;99.90
1083;DHT22;530;51.448;7.238;2022-07-04T06:01:22;18.10;99.90
1083;DHT22;530;51.448;7.238;2022-07-04T06:03:48;18.10;99.90
1083;DHT22;530;51.448;7.238;2022-07-04T06:06:14;18.20;99.90
1083;DHT22;530;51.448;7.238;2022-07-04T06:08:41;18.30;99.90
1083;DHT22;530;51.448;7.238;2022-07-04T06:11:06;18.30;99.90
1083;DHT22;530;51.448;7.238;2022-07-04T06:13:32;18.40;99.90
1083;DHT22;530;51.448;7.238;2022-07-04T06:15:58;18.50;99.90
1083;DHT22;530;51.448;7.238;2022-07-04T06:18:24;18.60;99.90
1083;DHT22;530;51.448;7.238;2022-07-04T06:20:49;18.80;99.90
1083;DHT22;530;51.448;7.238;2022-07-04T06:23:15;18.90;99.90
1083;DHT22;530;51.448;7.238;2022-07-04T06:25:41;19.00;99.90
1083;DHT22;530;51.448;7.238;2022-07-04T06:28:07;19.10;99.90
1083;DHT22;530;51.448;7.238;2022-07-04T06:30:33;19.10;99.90
1083;DHT22;530;51.448;7.238;2022-07-04T06:32:59;19.10;99.90
1083;DHT22;530;51.448;7.238;2022-07-04T06:35:27;19.30;99.90
1083;DHT22;530;51.448;7.238;2022-07-04T06:38:16;19.40;99.90
1083;DHT22;530;51.448;7.238;2022-07-04T06:40:43;19.40;99.90
1083;DHT22;530;51.448;7.238;2022-07-04T06:43:09;19.50;99.90
1083;DHT22;530;51.448;7.238;2022-07-04T06:45:35;19.70;99.90
1083;DHT22;530;51.448;7.238;2022-07-04T06:48:05;19.80;99.90
1083;DHT22;530;51.448;7.238;2022-07-04T06:50:31;19.90;99.90
1083;DHT22;530;51.448;7.238;2022-07-04T06:53:04;19.80;99.90
1083;DHT22;530;51.448;7.238;2022-07-04T06:55:30;19.80;99.90
1083;DHT22;530;51.448;7.238;2022-07-04T06:58:01;19.90;99.90
1083;DHT22;530;51.448;7.238;2022-07-04T07:00:27;20.10;99.90
1083;DHT22;530;51.448;7.238;2022-07-04T07:02:56;20.20;99.90
1083;DHT22;530;51.448;7.238;2022-07-04T07:05:24;20.20;99.90
1083;DHT22;530;51.448;7.238;2022-07-04T07:07:50;20.10;99.90
1083;DHT22;530;51.448;7.238;2022-07-04T07:10:16;20.20;99.90
1083;DHT22;530;51.448;7.238;2022-07-04T07:12:41;20.30;99.90
1083;DHT22;530;51.448;7.238;2022-07-04T07:15:07;20.40;99.90
1083;DHT22;530;51.448;7.238;2022-07-04T07:17:34;20.60;99.90
1083;DHT22;530;51.448;7.238;2022-07-04T07:20:00;20.70;99.90
1083;DHT22;530;51.448;7.238;2022-07-04T07:22:26;20.70;99.90
1083;DHT22;530;51.448;7.238;2022-07-04T07:24:51;20.90;99.90
1083;DHT22;530;51.448;7.238;2022-07-04T07:27:18;21.00;99.50
1083;DHT22;530;51.448;7.238;2022-07-04T07:29:44;21.10;98.70
1083;DHT22;530;51.448;7.238;2022-07-04T07:32:10;21.00;98.80
1083;DHT22;530;51.448;7.238;2022-07-04T07:34:35;20.90;98.30
1083;DHT22;530;51.448;7.238;2022-07-04T07:37:02;20.80;98.70
1083;DHT22;530;51.448;7.238;2022-07-04T07:39:28;20.80;98.80
1083;DHT22;530;51.448;7.238;2022-07-04T07:41:53;20.80;97.60
1083;DHT22;530;51.448;7.238;2022-07-04T07:44:19;20.90;97.00
1083;DHT22;530;51.448;7.238;2022-07-04T07:46:45;21.00;97.60
1083;DHT22;530;51.448;7.238;2022-07-04T07:49:11;21.00;97.80
1083;DHT22;530;51.448;7.238;2022-07-04T07:51:36;20.80;97.80
1083;DHT22;530;51.448;7.238;2022-07-04T07:54:02;20.80;98.60
1083;DHT22;530;51.448;7.238;2022-07-04T07:56:28;20.90;98.80
1083;DHT22;530;51.448;7.238;2022-07-04T07:58:54;20.90;98.70
1083;DHT22;530;51.448;7.238;2022-07-04T08:01:20;21.00;99.10
1083;DHT22;530;51.448;7.238;2022-07-04T08:03:46;21.20;97.70
1083;DHT22;530;51.448;7.238;2022-07-04T08:06:32;21.20;98.50
1083;DHT22;530;51.448;7.238;2022-07-04T08:08:58;21.20;97.80
1083;DHT22;530;51.448;7.238;2022-07-04T08:11:24;21.20;98.50
1083;DHT22;530;51.448;7.238;2022-07-04T08:13:50;21.20;98.10
1083;DHT22;530;51.448;7.238;2022-07-04T08:16:16;21.20;98.10
1083;DHT22;530;51.448;7.238;2022-07-04T08:18:42;21.00;97.50
1083;DHT22;530;51.448;7.238;2022-07-04T08:21:08;21.00;97.80
1083;DHT22;530;51.448;7.238;2022-07-04T08:23:34;20.90;95.90
1083;DHT22;530;51.448;7.238;2022-07-04T08:26:00;20.90;96.80
1083;DHT22;530;51.448;7.238;2022-07-04T08:28:27;20.90;96.70
1083;DHT22;530;51.448;7.238;2022-07-04T08:30:53;20.90;96.90
1083;DHT22;530;51.448;7.238;2022-07-04T08:33:19;20.90;97.60
1083;DHT22;530;51.448;7.238;2022-07-04T08:35:45;21.10;97.50
1083;DHT22;530;51.448;7.238;2022-07-04T08:38:11;21.10;97.00
1083;DHT22;530;51.448;7.238;2022-07-04T08:40:37;21.10;96.50
1083;DHT22;530;51.448;7.238;2022-07-04T08:43:03;21.20;96.10
1083;DHT22;530;51.448;7.238;2022-07-04T08:45:31;21.30;96.40
1083;DHT22;530;51.448;7.238;2022-07-04T08:48:08;21.30;96.70
1083;DHT22;530;51.448;7.238;2022-07-04T08:50:38;21.40;96.70
1083;DHT22;530;51.448;7.238;2022-07-04T08:53:12;21.60;97.00
1083;DHT22;530;51.448;7.238;2022-07-04T08:55:41;21.70;96.50
1083;DHT22;530;51.448;7.238;2022-07-04T08:58:26;21.80;96.10
1083;DHT22;530;51.448;7.238;2022-07-04T09:01:01;22.00;95.50
1083;DHT22;530;51.448;7.238;2022-07-04T09:03:28;22.10;95.10
1083;DHT22;530;51.448;7.238;2022-07-04T09:05:55;22.20;95.40
1083;DHT22;530;51.448;7.238;2022-07-04T09:08:21;22.20;95.50
1083;DHT22;530;51.448;7.238;2022-07-04T09:10:51;22.30;95.50
1083;DHT22;530;51.448;7.238;2022-07-04T09:13:17;22.40;95.10
1083;DHT22;530;51.448;7.238;2022-07-04T09:15:46;22.60;94.10
1083;DHT22;530;51.448;7.238;2022-07-04T09:20:47;22.70;94.30
1083;DHT22;530;51.448;7.238;2022-07-04T09:23:21;22.80;93.40
1083;DHT22;530;51.448;7.238;2022-07-04T09:26:05;22.90;93.40
1083;DHT22;530;51.448;7.238;2022-07-04T09:28:31;22.90;92.60
1083;DHT22;530;51.448;7.238;2022-07-04T09:30:57;23.00;92.70
1083;DHT22;530;51.448;7.238;2022-07-04T09:33:44;23.00;92.20
1083;DHT22;530;51.448;7.238;2022-07-04T09:36:14;22.90;90.50
1083;DHT22;530;51.448;7.238;2022-07-04T09:38:41;23.00;91.40
1083;DHT22;530;51.448;7.238;2022-07-04T09:41:06;23.10;91.90
1083;DHT22;530;51.448;7.238;2022-07-04T09:44:05;23.20;91.40
1083;DHT22;530;51.448;7.238;2022-07-04T09:46:31;23.40;91.70
1083;DHT22;530;51.448;7.238;2022-07-04T09:48:58;23.40;91.20
1083;DHT22;530;51.448;7.238;2022-07-04T09:54:27;23.60;90.90
1083;DHT22;530;51.448;7.238;2022-07-04T09:56:58;23.80;91.80
1083;DHT22;530;51.448;7.238;2022-07-04T09:59:25;23.90;91.80
1083;DHT22;530;51.448;7.238;2022-07-04T10:02:08;24.00;92.50
1083;DHT22;530;51.448;7.238;2022-07-04T10:04:51;24.00;91.10
1083;DHT22;530;51.448;7.238;2022-07-04T10:07:40;24.00;91.00
1083;DHT22;530;51.448;7.238;2022-07-04T10:10:31;24.10;90.30
1083;DHT22;530;51.448;7.238;2022-07-04T10:13:05;24.00;90.80
1083;DHT22;530;51.448;7.238;2022-07-04T10:15:32;24.10;88.00
1083;DHT22;530;51.448;7.238;2022-07-04T10:17:59;24.10;89.40
1083;DHT22;530;51.448;7.238;2022-07-04T10:20:26;24.00;90.10
1083;DHT22;530;51.448;7.238;2022-07-04T10:22:52;24.10;90.10
1083;DHT22;530;51.448;7.238;2022-07-04T10:25:19;24.20;87.40
1083;DHT22;530;51.448;7.238;2022-07-04T10:27:45;24.20;84.30
1083;DHT22;530;51.448;7.238;2022-07-04T10:30:15;24.20;87.00
1083;DHT22;530;51.448;7.238;2022-07-04T10:32:43;24.20;89.00
1083;DHT22;530;51.448;7.238;2022-07-04T10:35:13;24.30;88.50
1083;DHT22;530;51.448;7.238;2022-07-04T10:38:18;24.50;90.30
1083;DHT22;530;51.448;7.238;2022-07-04T10:40:45;24.50;87.90
1083;DHT22;530;51.448;7.238;2022-07-04T11:02:00;25.00;90.40
1083;DHT22;530;51.448;7.238;2022-07-04T11:05:08;25.10;87.20
1083;DHT22;530;51.448;7.238;2022-07-04T11:20:32;25.30;84.00
1083;DHT22;530;51.448;7.238;2022-07-04T11:23:12;25.20;84.30
1083;DHT22;530;51.448;7.238;2022-07-04T11:25:40;25.00;86.10
1083;DHT22;530;51.448;7.238;2022-07-04T11:28:29;25.00;84.20
1083;DHT22;530;51.448;7.238;2022-07-04T11:30:58;24.90;80.90
1083;DHT22;530;51.448;7.238;2022-07-04T11:33:31;24.50;80.80
1083;DHT22;530;51.448;7.238;2022-07-04T11:38:48;24.10;85.50
1083;DHT22;530;51.448;7.238;2022-07-04T11:41:14;24.10;88.40
1083;DHT22;530;51.448;7.238;2022-07-04T11:44:03;24.30;88.40
1083;DHT22;530;51.448;7.238;2022-07-04T11:46:48;24.40;88.20
1083;DHT22;530;51.448;7.238;2022-07-04T11:49:14;24.10;83.30
1083;DHT22;530;51.448;7.238;2022-07-04T11:51:49;24.10;85.20
1083;DHT22;530;51.448;7.238;2022-07-04T11:54:15;24.00;86.50
1083;DHT22;530;51.448;7.238;2022-07-04T11:56:41;24.00;87.10
1083;DHT22;530;51.448;7.238;2022-07-04T11:59:14;23.90;86.80
1083;DHT22;530;51.448;7.238;2022-07-04T12:01:42;23.90;87.90
1083;DHT22;530;51.448;7.238;2022-07-04T12:04:18;23.90;86.10
1083;DHT22;530;51.448;7.238;2022-07-04T12:06:46;24.00;88.60
1083;DHT22;530;51.448;7.238;2022-07-04T12:09:13;24.10;87.80
1083;DHT22;530;51.448;7.238;2022-07-04T12:11:58;24.00;85.00
1083;DHT22;530;51.448;7.238;2022-07-04T12:14:26;23.90;87.00
1083;DHT22;530;51.448;7.238;2022-07-04T12:17:12;23.90;86.90
1083;DHT22;530;51.448;7.238;2022-07-04T12:19:55;24.00;88.10
1083;DHT22;530;51.448;7.238;2022-07-04T12:22:31;24.00;83.50
1083;DHT22;530;51.448;7.238;2022-07-04T12:24:58;23.90;86.30
1083;DHT22;530;51.448;7.238;2022-07-04T12:27:25;23.70;84.80
1083;DHT22;530;51.448;7.238;2022-07-04T12:29:52;23.70;87.20
1083;DHT22;530;51.448;7.238;2022-07-04T12:32:19;23.60;88.20
1083;DHT22;530;51.448;7.238;2022-07-04T12:34:45;23.80;89.20
1083;DHT22;530;51.448;7.238;2022-07-04T12:37:13;24.00;86.60
1083;DHT22;530;51.448;7.238;2022-07-04T12:39:41;24.20;86.70
1083;DHT22;530;51.448;7.238;2022-07-04T12:42:17;24.40;85.90
1083;DHT22;530;51.448;7.238;2022-07-04T12:44:45;24.40;86.20
1083;DHT22;530;51.448;7.238;2022-07-04T12:47:15;24.40;86.20
1083;DHT22;530;51.448;7.238;2022-07-04T12:49:46;24.30;85.80
1083;DHT22;530;51.448;7.238;2022-07-04T12:52:14;24.30;83.50
1083;DHT22;530;51.448;7.238;2022-07-04T12:54:42;24.30;85.20
1083;DHT22;530;51.448;7.238;2022-07-04T12:57:15;24.50;86.70
1083;DHT22;530;51.448;7.238;2022-07-04T12:59:43;24.60;85.60
1083;DHT22;530;51.448;7.238;2022-07-04T13:02:10;24.60;82.70
1083;DHT22;530;51.448;7.238;2022-07-04T13:04:38;24.60;82.90
1083;DHT22;530;51.448;7.238;2022-07-04T13:07:15;24.40;81.80
1083;DHT22;530;51.448;7.238;2022-07-04T13:09:42;24.20;81.80
1083;DHT22;530;51.448;7.238;2022-07-04T13:12:09;24.10;81.20
1083;DHT22;530;51.448;7.238;2022-07-04T13:14:53;24.00;81.80
1083;DHT22;530;51.448;7.238;2022-07-04T13:17:19;23.90;83.10
1083;DHT22;530;51.448;7.238;2022-07-04T13:19:45;23.80;80.20
1083;DHT22;530;51.448;7.238;2022-07-04T13:22:11;23.80;83.90
1083;DHT22;530;51.448;7.238;2022-07-04T13:24:37;23.80;84.60
1083;DHT22;530;51.448;7.238;2022-07-04T13:27:03;23.80;81.30
1083;DHT22;530;51.448;7.238;2022-07-04T13:29:29;23.70;84.10
1083;DHT22;530;51.448;7.238;2022-07-04T13:31:55;23.70;86.80
1083;DHT22;530;51.448;7.238;2022-07-04T13:34:21;23.70;86.50
1083;DHT22;530;51.448;7.238;2022-07-04T13:36:46;23.90;86.70
1083;DHT22;530;51.448;7.238;2022-07-04T13:39:12;23.90;85.20
1083;DHT22;530;51.448;7.238;2022-07-04T13:41:38;23.80;83.20
1083;DHT22;530;51.448;7.238;2022-07-04T13:44:05;23.70;84.20
1083;DHT22;530;51.448;7.238;2022-07-04T13:46:32;23.70;85.50
1083;DHT22;530;51.448;7.238;2022-07-04T13:49:04;23.70;84.90
1083;DHT22;530;51.448;7.238;2022-07-04T13:51:30;23.60;84.90
1083;DHT22;530;51.448;7.238;2022-07-04T13:53:56;23.70;83.50
1083;DHT22;530;51.448;7.238;2022-07-04T13:56:22;23.60;81.50
1083;DHT22;530;51.448;7.238;2022-07-04T13:58:48;23.60;84.40
1083;DHT22;530;51.448;7.238;2022-07-04T14:01:15;23.80;87.10
1083;DHT22;530;51.448;7.238;2022-07-04T14:03:43;24.00;84.60
1083;DHT22;530;51.448;7.238;2022-07-04T14:06:09;24.20;85.20
1083;DHT22;530;51.448;7.238;2022-07-04T14:08:35;24.30;83.90
1083;DHT22;530;51.448;7.238;2022-07-04T14:11:01;24.40;83.80
1083;DHT22;530;51.448;7.238;2022-07-04T14:13:28;24.60;78.90
1083;DHT22;530;51.448;7.238;2022-07-04T14:15:54;24.70;80.80
1083;DHT22;530;51.448;7.238;2022-07-04T14:18:20;24.80;78.40
1083;DHT22;530;51.448;7.238;2022-07-04T14:20:46;24.80;76.80
1083;DHT22;530;51.448;7.238;2022-07-04T14:23:12;24.80;77.60
1083;DHT22;530;51.448;7.238;2022-07-04T14:25:38;24.80;79.30
1083;DHT22;530;51.448;7.238;2022-07-04T14:28:04;24.90;79.30
1083;DHT22;530;51.448;7.238;2022-07-04T14:30:30;24.70;77.50
1083;DHT22;530;51.448;7.238;2022-07-04T14:32:56;24.70;78.10
1083;DHT22;530;51.448;7.238;2022-07-04T14:35:21;24.50;77.70
1083;DHT22;530;51.448;7.238;2022-07-04T14:37:47;24.40;77.70
1083;DHT22;530;51.448;7.238;2022-07-04T14:40:14;24.40;80.00
1083;DHT22;530;51.448;7.238;2022-07-04T14:42:40;24.40;80.00
1083;DHT22;530;51.448;7.238;2022-07-04T14:45:06;24.40;80.30
1083;DHT22;530;51.448;7.238;2022-07-04T14:47:32;24.50;79.60
1083;DHT22;530;51.448;7.238;2022-07-04T14:50:01;24.60;80.70
1083;DHT22;530;51.448;7.238;2022-07-04T14:52:27;24.70;79.50
1083;DHT22;530;51.448;7.238;2022-07-04T14:54:53;24.70;79.90
1083;DHT22;530;51.448;7.238;2022-07-04T14:57:19;24.80;81.60
1083;DHT22;530;51.448;7.238;2022-07-04T14:59:45;24.80;76.70
1083;DHT22;530;51.448;7.238;2022-07-04T15:02:10;24.80;76.80
1083;DHT22;530;51.448;7.238;2022-07-04T15:04:36;24.70;75.80
1083;DHT22;530;51.448;7.238;2022-07-04T15:07:02;24.80;78.90
1083;DHT22;530;51.448;7.238;2022-07-04T15:09:28;24.80;77.00
1083;DHT22;530;51.448;7.238;2022-07-04T15:11:53;24.90;77.90
1083;DHT22;530;51.448;7.238;2022-07-04T15:14:19;24.80;77.30
1083;DHT22;530;51.448;7.238;2022-07-04T15:16:45;24.80;75.70
1083;DHT22;530;51.448;7.238;2022-07-04T15:19:10;24.80;76.10
1083;DHT22;530;51.448;7.238;2022-07-04T15:21:38;24.80;77.60
1083;DHT22;530;51.448;7.238;2022-07-04T15:24:22;24.80;79.30
1083;DHT22;530;51.448;7.238;2022-07-04T15:26:49;24.80;77.60
1083;DHT22;530;51.448;7.238;2022-07-04T15:29:17;24.80;77.70
1083;DHT22;530;51.448;7.238;2022-07-04T15:31:44;24.80;78.70
1083;DHT22;530;51.448;7.238;2022-07-04T15:34:14;24.70;78.20
1083;DHT22;530;51.448;7.238;2022-07-04T15:36:41;24.70;79.90
1083;DHT22;530;51.448;7.238;2022-07-04T15:39:08;24.70;80.10
1083;DHT22;530;51.448;7.238;2022-07-04T15:41:35;24.70;76.90
1083;DHT22;530;51.448;7.238;2022-07-04T15:44:02;24.70;79.20
1083;DHT22;530;51.448;7.238;2022-07-04T15:46:28;24.80;80.40
1083;DHT22;530;51.448;7.238;2022-07-04T15:48:53;24.80;81.20
1083;DHT22;530;51.448;7.238;2022-07-04T15:51:19;24.80;77.90
1083;DHT22;530;51.448;7.238;2022-07-04T15:53:45;24.90;77.50
1083;DHT22;530;51.448;7.238;2022-07-04T15:56:11;24.90;79.20
1083;DHT22;530;51.448;7.238;2022-07-04T15:58:37;24.80;76.40
1083;DHT22;530;51.448;7.238;2022-07-04T16:01:02;24.80;77.00
1083;DHT22;530;51.448;7.238;2022-07-04T16:03:28;24.60;75.20
1083;DHT22;530;51.448;7.238;2022-07-04T16:05:54;24.60;77.20
1083;DHT22;530;51.448;7.238;2022-07-04T16:08:20;24.40;78.90
1083;DHT22;530;51.448;7.238;2022-07-04T16:10:46;24.30;79.70
1083;DHT22;530;51.448;7.238;2022-07-04T16:13:11;24.20;79.60
1083;DHT22;530;51.448;7.238;2022-07-04T16:15:37;24.20;79.90
1083;DHT22;530;51.448;7.238;2022-07-04T16:18:03;24.10;79.40
1083;DHT22;530;51.448;7.238;2022-07-04T16:20:29;24.10;80.10
1083;DHT22;530;51.448;7.238;2022-07-04T16:22:54;24.00;81.30
1083;DHT22;530;51.448;7.238;2022-07-04T16:25:20;24.10;82.20
1083;DHT22;530;51.448;7.238;2022-07-04T16:27:46;24.20;81.20
1083;DHT22;530;51.448;7.238;2022-07-04T16:30:12;24.30;81.00
1083;DHT22;530;51.448;7.238;2022-07-04T16:32:38;24.20;77.90
1083;DHT22;530;51.448;7.238;2022-07-04T16:35:05;24.20;77.40
1083;DHT22;530;51.448;7.238;2022-07-04T16:37:31;24.30;82.40
1083;DHT22;530;51.448;7.238;2022-07-04T16:39:57;24.30;81.00
1083;DHT22;530;51.448;7.238;2022-07-04T16:42:23;24.40;79.40
1083;DHT22;530;51.448;7.238;2022-07-04T16:44:49;24.40;79.10
1083;DHT22;530;51.448;7.238;2022-07-04T16:47:14;24.20;79.30
1083;DHT22;530;51.448;7.238;2022-07-04T16:49:40;24.20;80.20
1083;DHT22;530;51.448;7.238;2022-07-04T16:52:06;24.20;80.80
1083;DHT22;530;51.448;7.238;2022-07-04T16:54:31;24.20;80.90
1083;DHT22;530;51.448;7.238;2022-07-04T16:56:57;24.10;80.10
1083;DHT22;530;51.448;7.238;2022-07-04T16:59:23;24.10;82.80
1083;DHT22;530;51.448;7.238;2022-07-04T17:01:49;24.20;83.00